Walhalla, North Dakota
Current Conditions -  °F | °C
As of 8:15 PM on Monday 22 Dec 2014 (Local Time) from K2C8 Reporting Station
Haze Haze  
Wind Chill: 27°   Ceiling: 200
Heat Index: 34°   Visibility: 1.5mi
Dew Point: 34°   Wind: 8mph
Humidity: 100%   Direction: 10°N
Pressure: 29.74"   Gusts: NA
Location:  48.92°N, 97.92°W
Report Text: K2C8 230215Z AUTO 01007KT 1 1/2SM BR OVC002 01/01 A2974 RMK AO2
Loading
Personal Weather Stations






























Interactive Weather Map New forecast layout! Learn more

10-Day Weather Forecast

Advertisements
Track Severe Weather on mobile